JP Observations

RJAA 152000Z 20009KT 9999 FEW015 SCT/// 26/23 Q1008 NOSIG RJAH 152000Z 22012KT 170V250 9999 FEW010 BKN015 BKN180 27/25 Q1007 RJAW 152000Z 09013KT 9999 VCSH FEW005 BKN010 BKN015 26/26 Q1009 RMK 1ST005 5CU010 7CU015 A2981 RJBB 152000Z AUTO 20010KT 9999 -RA SCT020 BKN027 BKN034 //////CB 27/25 Q1008 NOSIG RJCC 152000Z 34003KT 4000 -SHRA BR FEW001 SCT003 BKN025 17/17 Q1007 RJFF 152000Z AUTO 16002KT 9999 NSC 27/23 Q1006 NOSIG RJFR 152000Z 05009KT 9999 FEW008 SCT015 BKN120 27/24 Q1007 RJGG 152000Z 14009KT 9999 FEW020 SCT/// 27/25 Q1009 NOSIG RJNK 152000Z 21010KT 9999 FEW030 SCT080 BKN150 29/16 Q1007 RJOH 152000Z 25004KT 9999 -RA FEW030 SCT080 BKN100 26/23 Q1007 RJOI 151955Z 00000KT 9999 FEW015 BKN030 OVC050 27/25 A2977 RMK SLP082 T02720250 RJOO 152000Z 23003KT 190V280 9999 FEW015 BKN025 28/22 Q1009 RJTT 152000Z 20016KT 9999 FEW015 SCT130 BKN/// 28/25 Q1008 NOSIG RJTY 151956Z AUTO 19009KT 10SM BKN140 27/22 A2982 RMK AO2 SLP093 T02650223 FZRANO $ ROAH 152000Z 16013KT 6000 SHRA FEW008 SCT020 BKN030 27/25 Q1002 RODN 151956Z 13015G19KT 8SM -RA FEW007 BKN020 26/25 A2960 RMK AO2A PK WND 12026/13 RAB1859E20RAB49 SLP029 P0002 T02600247 ROYN 152000Z AUTO VRB01KT 9999 FEW011 SCT080 27/26 Q0999